Página principal
METAR-TAF:

METAR-TAF

Aeroportos :

Aeroporto Internacional de Asgabate

Asgabate, Turquemenistão

latitude: 37-59N, longitude: 058-22E, altura: 211 m

Observação actual do tempo

O boletim foi feito há 58 minutos, às 20:00 UTC
Vento 4 kt de es-sudeste, variando entre nor-nordeste e sudeste
Temperatura 29°C
Humidade 31%
Pressão 1004 hPa
Visibilidade 10 km ou mais

METAR: UTAA 172000Z 11004KT 030V140 9999 NSC 29/10 Q1004 R88/70D NOSIG

Hora: 01:58 (20:58 UTC)

Previsão

O boletim foi feito há 4 horas e 28 minutos, às 16:30 UTC
Previsão válida de 17 às 18 UTC a 18 às 18 UTC
Vento 16 kt de es-sudeste
Visibilidade: 6000 m
Nuvens dispersasa uma altura de 5000 ft, Cumulonimbus.
Nuvens dispersasa uma altura de 5000 ft
Temporariamente
de 17 às 18 UTC a 17 às 24 UTC
Vento 12 kt de sul
Temporariamente
de 18 às 05 UTC a 18 às 12 UTC
Vento 12 kt de este com rajadas de 22 kt

TAF: UTAA 171630Z 1718/1818 12016KT 6000 SCT050CB SCT050 530009 TEMPO 1718/1724 19012KT TEMPO 1805/1812 09012G22KT

Observações e previsões do tempo de mais de 4000 aeroportos (mensagens METAR e TAF).

As estações disponíveis são os pontos amarelos e vermelhos sobre o mapa.

Mova o rato sobre o mapa para ver o nome da estação.

Depois clique no ponto para visualizar as observações e previsões meteorológicas.

Para alterar o mapa : clique nos botões verdes com uma cruz preta para aumentar o zoom; no botão verde com uma pitada de zoom; ou nas setas verdes para mapas adjacentes.


METAR-TAF: